createdAt,value
2022-11-20T00:00:33.431Z,4.90
2022-11-20T00:03:57.523Z,5.75
2022-11-20T00:07:19.752Z,6.15
2022-11-20T00:10:42.257Z,5.57
2022-11-20T00:14:04.519Z,6.43
2022-11-20T00:17:26.962Z,3.90
2022-11-20T00:20:49.153Z,3.88
2022-11-20T00:24:11.622Z,4.60
2022-11-20T00:27:33.893Z,6.53
2022-11-20T00:31:09.896Z,3.90
2022-11-20T00:34:32.076Z,5.95
2022-11-20T00:37:54.410Z,4.65
2022-11-20T00:41:17.286Z,4.22
2022-11-20T00:44:39.655Z,4.60
2022-11-20T00:48:01.846Z,4.00
2022-11-20T00:51:26.737Z,3.20
2022-11-20T00:54:48.972Z,3.33
2022-11-20T00:58:14.267Z,3.42
2022-11-20T01:01:38.104Z,3.25
2022-11-20T01:05:00.340Z,5.00
2022-11-20T01:08:22.518Z,5.40
2022-11-20T01:11:45.697Z,4.15
2022-11-20T01:15:09.044Z,5.85
2022-11-20T01:18:31.263Z,3.75
2022-11-20T01:21:55.199Z,4.45
2022-11-20T01:25:17.316Z,3.55
2022-11-20T01:28:40.635Z,2.88
2022-11-20T01:32:02.808Z,3.55
2022-11-20T01:35:25.030Z,4.72
2022-11-20T01:38:47.454Z,4.50
2022-11-20T01:42:32.580Z,3.72
2022-11-20T01:46:17.223Z,3.15
2022-11-20T01:49:46.267Z,3.55
2022-11-20T01:53:15.934Z,2.85
2022-11-20T01:56:43.442Z,2.88
2022-11-20T02:00:12.880Z,2.65
2022-11-20T02:03:35.074Z,4.25
2022-11-20T02:07:02.394Z,2.90
2022-11-20T02:10:25.028Z,2.30
2022-11-20T02:13:47.785Z,2.42
2022-11-20T02:17:09.973Z,2.05
2022-11-20T02:20:33.035Z,3.15
2022-11-20T02:23:58.224Z,2.60
2022-11-20T02:27:21.503Z,2.65
2022-11-20T02:30:43.666Z,2.95
2022-11-20T02:34:06.207Z,2.20
2022-11-20T02:37:33.648Z,2.70
2022-11-20T02:40:56.092Z,1.98
2022-11-20T02:44:18.335Z,2.20
2022-11-20T02:47:40.615Z,4.38
2022-11-20T02:51:02.893Z,2.05
2022-11-20T02:54:25.428Z,4.45
2022-11-20T02:57:47.596Z,2.05
2022-11-20T03:01:09.954Z,4.28
2022-11-20T03:04:32.234Z,3.05
2022-11-20T03:07:54.436Z,1.90
2022-11-20T03:11:16.709Z,1.90
2022-11-20T03:14:38.897Z,2.05
2022-11-20T03:18:01.095Z,1.77
2022-11-20T03:21:23.360Z,1.35
2022-11-20T03:24:45.648Z,1.70
2022-11-20T03:28:07.807Z,1.77
2022-11-20T03:31:35.610Z,1.80
2022-11-20T03:34:57.860Z,1.63
2022-11-20T03:38:20.128Z,2.92
2022-11-20T03:41:43.197Z,1.55
2022-11-20T03:45:06.064Z,2.25
2022-11-20T03:48:28.891Z,1.80
2022-11-20T03:51:51.389Z,1.73
2022-11-20T03:55:13.527Z,1.20
2022-11-20T03:58:38.160Z,2.00
2022-11-20T04:02:00.419Z,1.40
2022-11-20T04:05:22.628Z,1.50
2022-11-20T04:08:49.667Z,1.38
2022-11-20T04:12:14.621Z,1.90
2022-11-20T04:15:38.572Z,1.42
2022-11-20T04:19:03.290Z,1.00
2022-11-20T04:22:25.571Z,1.30
2022-11-20T04:25:47.679Z,2.03
2022-11-20T04:29:12.721Z,2.08
2022-11-20T04:32:34.863Z,1.80
2022-11-20T04:36:05.235Z,3.28
2022-11-20T04:39:27.702Z,1.58
2022-11-20T04:42:50.010Z,1.60
2022-11-20T04:46:12.162Z,2.42
2022-11-20T04:49:34.993Z,2.55
2022-11-20T04:52:57.242Z,1.38
2022-11-20T04:56:19.575Z,1.50
2022-11-20T04:59:41.884Z,1.70
2022-11-20T05:03:04.678Z,1.00
2022-11-20T05:06:26.832Z,1.08
2022-11-20T05:09:49.007Z,1.67
2022-11-20T05:13:11.143Z,1.33
2022-11-20T05:16:36.803Z,1.17
2022-11-20T05:19:58.978Z,1.02
2022-11-20T05:23:21.129Z,0.88
2022-11-20T05:26:45.045Z,1.23
2022-11-20T05:30:08.171Z,2.58
2022-11-20T05:33:30.366Z,1.60
2022-11-20T05:36:52.495Z,0.70
2022-11-20T05:40:14.761Z,2.15
2022-11-20T05:43:38.249Z,0.90
2022-11-20T05:47:00.511Z,1.67
2022-11-20T05:50:22.714Z,2.63
2022-11-20T05:53:48.495Z,0.85
2022-11-20T05:57:11.083Z,1.23
2022-11-20T06:00:33.272Z,1.02
2022-11-20T06:03:55.521Z,0.73
2022-11-20T06:07:17.737Z,1.50
2022-11-20T06:10:39.993Z,2.83
2022-11-20T06:14:02.166Z,2.50
2022-11-20T06:17:24.348Z,0.98
2022-11-20T06:20:47.500Z,2.92
2022-11-20T06:24:12.872Z,0.73
2022-11-20T06:27:35.087Z,0.60
2022-11-20T06:30:57.534Z,0.65
2022-11-20T06:34:19.881Z,0.77
2022-11-20T06:37:42.051Z,0.57
2022-11-20T06:41:05.508Z,0.63
2022-11-20T06:44:27.760Z,0.60
2022-11-20T06:47:49.976Z,1.77
2022-11-20T06:51:12.366Z,0.88
2022-11-20T06:54:34.576Z,1.25
2022-11-20T06:57:56.721Z,1.13
2022-11-20T07:01:19.046Z,2.33
2022-11-20T07:04:41.274Z,0.60
2022-11-20T07:08:04.312Z,0.80
2022-11-20T07:11:26.505Z,1.33
2022-11-20T07:14:48.676Z,2.17
2022-11-20T07:18:11.343Z,0.80
2022-11-20T07:21:33.564Z,0.90
2022-11-20T07:24:55.917Z,0.80
2022-11-20T07:28:18.129Z,1.80
2022-11-20T07:31:40.257Z,0.88
2022-11-20T07:35:02.403Z,3.83
2022-11-20T07:38:24.605Z,1.23
2022-11-20T07:41:46.805Z,1.33
2022-11-20T07:45:09.488Z,5.65
2022-11-20T07:48:31.677Z,0.82
2022-11-20T07:51:54.796Z,1.50
2022-11-20T07:55:17.157Z,2.33
2022-11-20T07:58:39.361Z,0.50
2022-11-20T08:02:01.489Z,0.98
2022-11-20T08:05:23.752Z,4.88
2022-11-20T08:08:45.968Z,7.88
2022-11-20T08:12:26.928Z,0.75
2022-11-20T08:15:53.868Z,0.63
2022-11-20T08:19:19.053Z,0.70
2022-11-20T08:26:03.913Z,0.82
2022-11-20T08:29:29.136Z,1.15
2022-11-20T08:36:13.480Z,0.70
2022-11-20T08:39:38.185Z,4.40
2022-11-20T08:43:00.353Z,1.13
2022-11-20T08:46:23.287Z,0.60
2022-11-20T08:49:45.531Z,1.60
2022-11-20T08:53:07.809Z,4.32
2022-11-20T08:56:30.012Z,4.53
2022-11-20T09:00:05.421Z,10.57
2022-11-20T09:03:32.889Z,2.95
2022-11-20T09:06:55.325Z,4.35
2022-11-20T09:10:24.136Z,4.00
2022-11-20T09:13:47.037Z,3.67
2022-11-20T09:17:14.325Z,1.67
2022-11-20T09:20:36.699Z,1.08
2022-11-20T09:23:58.899Z,1.88
2022-11-20T09:27:24.217Z,2.78
2022-11-20T09:30:46.498Z,3.67
2022-11-20T09:34:08.731Z,2.47
2022-11-20T09:37:30.949Z,4.68
2022-11-20T09:40:59.596Z,3.05
2022-11-20T09:44:30.748Z,2.15
2022-11-20T09:48:01.873Z,5.00
2022-11-20T09:51:47.412Z,6.38
2022-11-20T09:55:14.611Z,5.57
2022-11-20T09:58:46.149Z,4.70
2022-11-20T10:02:25.614Z,2.60
2022-11-20T10:05:55.871Z,4.18
2022-11-20T10:09:33.262Z,4.18
2022-11-20T10:12:58.278Z,5.57
2022-11-20T10:16:41.488Z,4.68
2022-11-20T10:20:15.858Z,9.02
2022-11-20T10:23:58.466Z,18.55
2022-11-20T10:27:48.721Z,21.10
2022-11-20T10:31:15.727Z,20.40
2022-11-20T10:34:52.768Z,16.58
2022-11-20T10:39:00.096Z,18.50
2022-11-20T10:42:35.121Z,12.65
2022-11-20T10:45:57.303Z,13.90
2022-11-20T10:49:21.367Z,13.70
2022-11-20T10:52:53.000Z,15.43
2022-11-20T10:56:27.896Z,11.98
2022-11-20T11:00:04.157Z,10.07
2022-11-20T11:03:31.710Z,46.42
2022-11-20T11:06:59.787Z,90.07
2022-11-20T11:10:47.827Z,79.68
2022-11-20T11:14:14.146Z,57.15
2022-11-20T11:17:36.360Z,60.13
2022-11-20T11:21:03.491Z,63.90
2022-11-20T11:24:44.430Z,57.42
2022-11-20T11:28:22.182Z,60.95
2022-11-20T11:31:44.322Z,52.58
2022-11-20T11:35:19.408Z,29.80
2022-11-20T11:38:44.157Z,41.47
2022-11-20T11:42:06.408Z,49.22
2022-11-20T11:45:29.469Z,39.17
2022-11-20T11:49:04.940Z,42.65
2022-11-20T11:52:28.783Z,56.10
2022-11-20T11:55:55.346Z,46.78
2022-11-20T11:59:32.292Z,41.17
2022-11-20T12:03:00.924Z,41.20
2022-11-20T12:06:23.911Z,28.75
2022-11-20T12:09:52.913Z,34.05
2022-11-20T12:13:47.756Z,37.85
2022-11-20T12:17:15.073Z,49.50
2022-11-20T12:20:54.411Z,49.63
2022-11-20T12:24:54.907Z,42.40
2022-11-20T12:28:45.616Z,37.10
2022-11-20T12:32:17.035Z,36.40
2022-11-20T12:35:54.175Z,31.80
2022-11-20T12:39:43.649Z,32.85
2022-11-20T12:43:43.161Z,33.63
2022-11-20T12:47:54.531Z,28.92
2022-11-20T12:51:34.662Z,27.33
2022-11-20T12:55:29.288Z,35.95
2022-11-20T12:59:02.639Z,33.58
2022-11-20T13:02:36.946Z,29.15
2022-11-20T13:06:19.562Z,24.50
2022-11-20T13:09:51.192Z,32.10
2022-11-20T13:13:43.421Z,19.45
2022-11-20T13:17:15.947Z,24.23
2022-11-20T13:20:43.792Z,17.83
2022-11-20T13:24:24.381Z,22.63
2022-11-20T13:27:50.555Z,22.75
2022-11-20T13:31:31.396Z,25.23
2022-11-20T13:34:55.647Z,20.60
2022-11-20T13:38:17.927Z,18.70
2022-11-20T13:41:41.001Z,19.20
2022-11-20T13:45:09.519Z,16.40
2022-11-20T13:48:42.547Z,14.35
2022-11-20T13:52:31.723Z,21.33
2022-11-20T13:56:08.851Z,21.67
2022-11-20T14:00:26.570Z,15.05
2022-11-20T14:04:06.569Z,15.38
2022-11-20T14:07:40.465Z,17.02
2022-11-20T14:11:26.664Z,15.57
2022-11-20T14:14:54.189Z,13.73
2022-11-20T14:18:22.759Z,19.95
2022-11-20T14:21:44.967Z,13.43
2022-11-20T14:25:15.126Z,11.85
2022-11-20T14:28:37.322Z,15.27
2022-11-20T14:32:00.081Z,11.07
2022-11-20T14:35:27.151Z,13.90
2022-11-20T14:38:49.683Z,20.17
2022-11-20T14:42:20.800Z,10.43
2022-11-20T14:45:43.467Z,8.43
2022-11-20T14:49:06.337Z,12.13
2022-11-20T14:52:29.377Z,11.68
2022-11-20T14:56:00.059Z,10.43
2022-11-20T14:59:27.124Z,10.00
2022-11-20T15:02:51.624Z,18.98
2022-11-20T15:06:13.872Z,10.15
2022-11-20T15:09:36.007Z,17.27
2022-11-20T15:13:13.120Z,9.80
2022-11-20T15:16:35.494Z,10.13
2022-11-20T15:19:57.862Z,10.05
2022-11-20T15:23:20.630Z,10.95
2022-11-20T15:26:43.382Z,15.00
2022-11-20T15:30:17.856Z,7.63
2022-11-20T15:33:40.037Z,12.70
2022-11-20T15:37:02.243Z,6.75
2022-11-20T15:40:24.521Z,7.05
2022-11-20T15:43:47.529Z,9.73
2022-11-20T15:47:10.686Z,8.23
2022-11-20T15:50:40.091Z,9.40
2022-11-20T15:54:22.834Z,8.38
2022-11-20T15:57:45.388Z,9.30
2022-11-20T16:01:12.935Z,9.73
2022-11-20T16:04:35.239Z,8.25
2022-11-20T16:07:57.701Z,11.52
2022-11-20T16:11:19.966Z,9.00
2022-11-20T16:15:00.535Z,3.88
2022-11-20T16:18:02.599Z,14.10
2022-11-20T16:21:04.779Z,7.60
2022-11-20T16:24:08.723Z,5.95
2022-11-20T16:27:11.481Z,8.85
2022-11-20T16:30:13.952Z,10.75
2022-11-20T16:33:18.212Z,4.60
2022-11-20T16:36:21.793Z,8.57
2022-11-20T16:39:26.025Z,10.40
2022-11-20T16:42:27.929Z,7.20
2022-11-20T16:45:33.686Z,5.20
2022-11-20T16:48:36.024Z,10.98
2022-11-20T16:51:38.184Z,7.80
2022-11-20T16:54:40.464Z,7.30
2022-11-20T16:57:42.700Z,7.30
2022-11-20T17:01:11.452Z,5.20
2022-11-20T17:04:33.740Z,7.60
2022-11-20T17:07:56.117Z,8.93
2022-11-20T17:11:19.900Z,5.75
2022-11-20T17:14:42.103Z,7.05
2022-11-20T17:18:04.391Z,4.80
2022-11-20T17:21:27.012Z,4.97
2022-11-20T17:24:49.213Z,7.95
2022-11-20T17:28:11.382Z,9.80
2022-11-20T17:31:35.148Z,5.70
2022-11-20T17:34:58.842Z,6.05
2022-11-20T17:38:21.331Z,7.72
2022-11-20T17:41:44.092Z,6.38
2022-11-20T17:45:06.667Z,7.38
2022-11-20T17:48:30.635Z,4.75
2022-11-20T17:51:52.836Z,3.90
2022-11-20T17:55:15.823Z,8.80
2022-11-20T17:58:38.067Z,5.35
2022-11-20T18:02:03.934Z,12.50
2022-11-20T18:05:26.901Z,6.72
2022-11-20T18:08:50.496Z,6.32
2022-11-20T18:12:12.748Z,7.35
2022-11-20T18:15:34.905Z,3.78
2022-11-20T18:18:58.789Z,6.43
2022-11-20T18:22:21.095Z,11.10
2022-11-20T18:25:44.697Z,7.93
2022-11-20T18:29:07.542Z,5.85
2022-11-20T18:32:29.914Z,7.75
2022-11-20T18:35:52.211Z,4.35
2022-11-20T18:39:15.386Z,6.78
2022-11-20T18:42:56.255Z,4.90
2022-11-20T18:46:19.523Z,5.43
2022-11-20T18:49:42.815Z,7.00
2022-11-20T18:53:05.027Z,8.10
2022-11-20T18:56:27.304Z,5.78
2022-11-20T18:59:49.856Z,4.57
2022-11-20T19:03:12.297Z,6.57
2022-11-20T19:06:35.672Z,5.65
2022-11-20T19:10:03.285Z,3.83
2022-11-20T19:13:26.447Z,8.10
2022-11-20T19:16:48.644Z,4.45
2022-11-20T19:20:10.990Z,4.53
2022-11-20T19:23:33.132Z,7.65
2022-11-20T19:26:56.242Z,5.93
2022-11-20T19:30:18.541Z,2.63
2022-11-20T19:33:42.074Z,4.90
2022-11-20T19:37:05.149Z,1.92
2022-11-20T19:40:27.328Z,3.20
2022-11-20T19:43:50.024Z,4.60
2022-11-20T19:47:14.664Z,6.00
2022-11-20T19:50:37.261Z,8.25
2022-11-20T19:54:00.320Z,5.60
2022-11-20T19:57:22.635Z,3.60
2022-11-20T20:00:44.877Z,6.05
2022-11-20T20:04:07.525Z,4.00
2022-11-20T20:07:29.766Z,6.93
2022-11-20T20:10:56.656Z,3.63
2022-11-20T20:14:21.747Z,3.58
2022-11-20T20:17:43.969Z,4.68
2022-11-20T20:21:08.314Z,3.03
2022-11-20T20:24:30.527Z,4.80
2022-11-20T20:27:52.698Z,5.78
2022-11-20T20:31:18.033Z,3.03
2022-11-20T20:34:40.373Z,4.60
2022-11-20T20:38:02.525Z,5.20
2022-11-20T20:41:24.992Z,4.28
2022-11-20T20:45:06.733Z,4.75
2022-11-20T20:48:28.940Z,5.57
2022-11-20T20:51:51.150Z,4.13
2022-11-20T20:55:13.379Z,2.42
2022-11-20T20:58:36.361Z,3.80
2022-11-20T21:01:58.561Z,4.35
2022-11-20T21:05:20.739Z,4.43
2022-11-20T21:08:44.618Z,8.77
2022-11-20T21:12:07.405Z,5.97
2022-11-20T21:15:29.807Z,4.30
2022-11-20T21:18:52.059Z,5.70
2022-11-20T21:22:14.284Z,8.70
2022-11-20T21:25:38.262Z,2.65
2022-11-20T21:29:00.626Z,7.28
2022-11-20T21:32:22.825Z,4.07
2022-11-20T21:35:45.010Z,4.18
2022-11-20T21:39:07.586Z,9.07
2022-11-20T21:42:29.932Z,7.30
2022-11-20T21:45:53.054Z,2.60
2022-11-20T21:49:17.504Z,3.80
2022-11-20T21:52:39.722Z,7.13
2022-11-20T21:56:04.102Z,4.40
2022-11-20T21:59:26.464Z,4.73
2022-11-20T22:02:48.677Z,6.10
2022-11-20T22:06:10.909Z,3.33
2022-11-20T22:09:33.137Z,7.10
2022-11-20T22:13:15.365Z,4.65
2022-11-20T22:16:38.447Z,5.15
2022-11-20T22:20:00.644Z,9.07
2022-11-20T22:23:22.922Z,4.80
2022-11-20T22:26:45.140Z,4.97
2022-11-20T22:30:08.012Z,2.72
2022-11-20T22:33:32.345Z,3.80
2022-11-20T22:36:54.544Z,4.67
2022-11-20T22:40:16.882Z,4.28
2022-11-20T22:43:40.087Z,5.47
2022-11-20T22:47:02.656Z,5.25
2022-11-20T22:50:26.552Z,3.33
2022-11-20T22:53:49.052Z,6.25
2022-11-20T22:57:11.266Z,8.10
2022-11-20T23:00:33.408Z,7.20
2022-11-20T23:04:01.156Z,5.45
2022-11-20T23:07:23.391Z,4.35
2022-11-20T23:10:45.579Z,7.80
2022-11-20T23:14:13.624Z,6.10
2022-11-20T23:17:35.792Z,7.20
2022-11-20T23:21:04.012Z,4.57
2022-11-20T23:24:26.578Z,4.55
2022-11-20T23:27:49.073Z,6.93
2022-11-20T23:31:12.675Z,7.32
2022-11-20T23:34:34.905Z,6.10
2022-11-20T23:37:57.073Z,3.50
2022-11-20T23:41:19.286Z,4.07
2022-11-20T23:44:41.516Z,7.20
2022-11-20T23:48:03.850Z,3.90
2022-11-20T23:51:26.017Z,3.80
2022-11-20T23:54:48.151Z,3.95
2022-11-20T23:58:10.325Z,3.72
